Wildrose, North Dakota
Current Conditions -  °F | °C
As of 3:15 PM on Sunday 23 Nov 2014 (Local Time) from KD60 Reporting Station
Overcast Overcast  
Wind Chill: -1°   Ceiling: 2200
Heat Index: 18°   Visibility: 10mi
Dew Point: 14°   Wind: 25mph
Humidity: 86%   Direction: 310°NW
Pressure: 29.71"   Gusts: 31mph
Location:  48.63°N, 103.18°W
Report Text: KD60 232115Z AUTO 31022G27KT 10SM FEW016 BKN022 OVC050 M08/M10 A2971 RMK AO2
Loading
Personal Weather Stations






























Interactive Weather Map New forecast layout! Learn more

10-Day Weather Forecast

Advertisements
Track Severe Weather on mobile